sensor_id;sensor_type;location;lat;lon;timestamp;P1;durP1;ratioP1;P2;durP2;ratioP2
2001;SDS011;1003;48.002;7.788;2022-09-09T00:02:02;2.07;;;1.33;;
2001;SDS011;1003;48.002;7.788;2022-09-09T00:04:45;3.17;;;1.23;;
2001;SDS011;1003;48.002;7.788;2022-09-09T00:07:28;2.07;;;1.33;;
2001;SDS011;1003;48.002;7.788;2022-09-09T00:10:14;2.40;;;1.30;;
2001;SDS011;1003;48.002;7.788;2022-09-09T00:12:53;5.27;;;1.50;;
2001;SDS011;1003;48.002;7.788;2022-09-09T00:15:33;2.60;;;1.50;;
2001;SDS011;1003;48.002;7.788;2022-09-09T00:18:13;2.97;;;1.57;;
2001;SDS011;1003;48.002;7.788;2022-09-09T00:20:52;2.93;;;1.50;;
2001;SDS011;1003;48.002;7.788;2022-09-09T00:23:30;2.27;;;1.47;;
2001;SDS011;1003;48.002;7.788;2022-09-09T00:26:03;1.80;;;1.20;;
2001;SDS011;1003;48.002;7.788;2022-09-09T00:28:39;1.43;;;1.23;;
2001;SDS011;1003;48.002;7.788;2022-09-09T00:31:15;1.70;;;1.47;;
2001;SDS011;1003;48.002;7.788;2022-09-09T00:33:50;2.93;;;1.60;;
2001;SDS011;1003;48.002;7.788;2022-09-09T00:36:20;2.37;;;1.43;;
2001;SDS011;1003;48.002;7.788;2022-09-09T00:38:55;2.47;;;1.50;;
2001;SDS011;1003;48.002;7.788;2022-09-09T00:41:28;2.80;;;1.37;;
2001;SDS011;1003;48.002;7.788;2022-09-09T00:44:18;1.17;;;1.07;;
2001;SDS011;1003;48.002;7.788;2022-09-09T00:46:59;2.03;;;1.30;;
2001;SDS011;1003;48.002;7.788;2022-09-09T00:49:50;1.80;;;1.37;;
2001;SDS011;1003;48.002;7.788;2022-09-09T00:52:30;4.67;;;1.50;;
2001;SDS011;1003;48.002;7.788;2022-09-09T00:55:07;6.03;;;1.50;;
2001;SDS011;1003;48.002;7.788;2022-09-09T00:57:43;2.23;;;1.50;;
2001;SDS011;1003;48.002;7.788;2022-09-09T01:00:16;1.40;;;1.30;;
2001;SDS011;1003;48.002;7.788;2022-09-09T01:02:51;4.47;;;1.80;;
2001;SDS011;1003;48.002;7.788;2022-09-09T01:05:48;1.90;;;1.23;;
2001;SDS011;1003;48.002;7.788;2022-09-09T01:08:34;4.27;;;1.47;;
2001;SDS011;1003;48.002;7.788;2022-09-09T01:11:38;2.63;;;1.57;;
2001;SDS011;1003;48.002;7.788;2022-09-09T01:14:22;3.33;;;1.40;;
2001;SDS011;1003;48.002;7.788;2022-09-09T01:17:07;2.70;;;1.50;;
2001;SDS011;1003;48.002;7.788;2022-09-09T01:19:45;2.03;;;1.43;;
2001;SDS011;1003;48.002;7.788;2022-09-09T01:22:32;1.70;;;1.40;;
2001;SDS011;1003;48.002;7.788;2022-09-09T01:27:59;2.93;;;1.40;;
2001;SDS011;1003;48.002;7.788;2022-09-09T01:30:33;3.00;;;1.47;;
2001;SDS011;1003;48.002;7.788;2022-09-09T01:33:04;1.77;;;1.40;;
2001;SDS011;1003;48.002;7.788;2022-09-09T01:35:42;2.43;;;1.13;;
2001;SDS011;1003;48.002;7.788;2022-09-09T01:38:16;1.90;;;1.50;;
2001;SDS011;1003;48.002;7.788;2022-09-09T01:40:44;4.17;;;1.30;;
2001;SDS011;1003;48.002;7.788;2022-09-09T01:43:13;2.53;;;1.50;;
2001;SDS011;1003;48.002;7.788;2022-09-09T01:45:40;4.07;;;1.60;;
2001;SDS011;1003;48.002;7.788;2022-09-09T01:48:12;2.93;;;1.50;;
2001;SDS011;1003;48.002;7.788;2022-09-09T01:50:39;2.00;;;1.47;;
2001;SDS011;1003;48.002;7.788;2022-09-09T01:53:07;2.17;;;1.50;;
2001;SDS011;1003;48.002;7.788;2022-09-09T01:55:36;2.10;;;1.60;;
2001;SDS011;1003;48.002;7.788;2022-09-09T01:58:10;1.87;;;1.37;;
2001;SDS011;1003;48.002;7.788;2022-09-09T02:00:59;1.40;;;1.30;;
2001;SDS011;1003;48.002;7.788;2022-09-09T02:03:37;1.70;;;1.60;;
2001;SDS011;1003;48.002;7.788;2022-09-09T02:06:08;2.43;;;1.50;;
2001;SDS011;1003;48.002;7.788;2022-09-09T02:08:52;2.53;;;1.50;;
2001;SDS011;1003;48.002;7.788;2022-09-09T02:11:25;1.47;;;1.37;;
2001;SDS011;1003;48.002;7.788;2022-09-09T02:13:56;2.57;;;1.70;;
2001;SDS011;1003;48.002;7.788;2022-09-09T02:16:28;2.33;;;1.43;;
2001;SDS011;1003;48.002;7.788;2022-09-09T02:19:06;1.47;;;1.37;;
2001;SDS011;1003;48.002;7.788;2022-09-09T02:21:38;1.97;;;1.57;;
2001;SDS011;1003;48.002;7.788;2022-09-09T02:24:09;1.40;;;1.27;;
2001;SDS011;1003;48.002;7.788;2022-09-09T02:26:42;1.80;;;1.37;;
2001;SDS011;1003;48.002;7.788;2022-09-09T02:29:17;1.50;;;1.40;;
2001;SDS011;1003;48.002;7.788;2022-09-09T02:31:49;1.53;;;1.37;;
2001;SDS011;1003;48.002;7.788;2022-09-09T02:34:20;2.17;;;1.50;;
2001;SDS011;1003;48.002;7.788;2022-09-09T02:36:52;1.60;;;1.50;;
2001;SDS011;1003;48.002;7.788;2022-09-09T02:39:23;1.63;;;1.40;;
2001;SDS011;1003;48.002;7.788;2022-09-09T02:41:50;4.33;;;1.60;;
2001;SDS011;1003;48.002;7.788;2022-09-09T02:44:19;1.57;;;1.47;;
2001;SDS011;1003;48.002;7.788;2022-09-09T02:46:52;2.20;;;1.37;;
2001;SDS011;1003;48.002;7.788;2022-09-09T02:49:40;3.07;;;1.60;;
2001;SDS011;1003;48.002;7.788;2022-09-09T02:52:29;2.33;;;1.23;;
2001;SDS011;1003;48.002;7.788;2022-09-09T02:55:11;1.60;;;1.30;;
2001;SDS011;1003;48.002;7.788;2022-09-09T02:57:49;2.07;;;1.40;;
2001;SDS011;1003;48.002;7.788;2022-09-09T03:00:24;2.23;;;1.67;;
2001;SDS011;1003;48.002;7.788;2022-09-09T03:02:54;2.60;;;1.60;;
2001;SDS011;1003;48.002;7.788;2022-09-09T03:05:21;2.57;;;1.50;;
2001;SDS011;1003;48.002;7.788;2022-09-09T03:07:48;2.40;;;1.50;;
2001;SDS011;1003;48.002;7.788;2022-09-09T03:10:16;1.80;;;1.40;;
2001;SDS011;1003;48.002;7.788;2022-09-09T03:12:44;2.70;;;1.37;;
2001;SDS011;1003;48.002;7.788;2022-09-09T03:15:11;1.87;;;1.63;;
2001;SDS011;1003;48.002;7.788;2022-09-09T03:17:41;1.93;;;1.40;;
2001;SDS011;1003;48.002;7.788;2022-09-09T03:20:08;2.43;;;1.50;;
2001;SDS011;1003;48.002;7.788;2022-09-09T03:22:35;1.40;;;1.30;;
2001;SDS011;1003;48.002;7.788;2022-09-09T03:25:03;2.47;;;1.47;;
2001;SDS011;1003;48.002;7.788;2022-09-09T03:27:31;3.10;;;1.50;;
2001;SDS011;1003;48.002;7.788;2022-09-09T03:29:58;2.63;;;1.70;;
2001;SDS011;1003;48.002;7.788;2022-09-09T03:32:29;1.50;;;1.40;;
2001;SDS011;1003;48.002;7.788;2022-09-09T03:34:57;1.47;;;1.20;;
2001;SDS011;1003;48.002;7.788;2022-09-09T03:37:24;2.03;;;1.47;;
2001;SDS011;1003;48.002;7.788;2022-09-09T03:39:52;1.83;;;1.30;;
2001;SDS011;1003;48.002;7.788;2022-09-09T03:42:20;3.37;;;1.37;;
2001;SDS011;1003;48.002;7.788;2022-09-09T03:44:48;3.17;;;1.80;;
2001;SDS011;1003;48.002;7.788;2022-09-09T03:47:16;1.87;;;1.20;;
2001;SDS011;1003;48.002;7.788;2022-09-09T03:49:44;1.90;;;1.50;;
2001;SDS011;1003;48.002;7.788;2022-09-09T03:52:13;2.30;;;1.20;;
2001;SDS011;1003;48.002;7.788;2022-09-09T03:54:41;1.70;;;1.40;;
2001;SDS011;1003;48.002;7.788;2022-09-09T03:57:08;1.10;;;1.00;;
2001;SDS011;1003;48.002;7.788;2022-09-09T03:59:36;1.80;;;1.40;;
2001;SDS011;1003;48.002;7.788;2022-09-09T04:02:03;1.70;;;1.20;;
2001;SDS011;1003;48.002;7.788;2022-09-09T04:04:30;1.60;;;1.30;;
2001;SDS011;1003;48.002;7.788;2022-09-09T04:06:57;2.13;;;1.40;;
2001;SDS011;1003;48.002;7.788;2022-09-09T04:09:26;3.07;;;1.20;;
2001;SDS011;1003;48.002;7.788;2022-09-09T04:11:53;4.83;;;1.57;;
2001;SDS011;1003;48.002;7.788;2022-09-09T04:14:20;1.63;;;1.40;;
2001;SDS011;1003;48.002;7.788;2022-09-09T04:16:47;1.90;;;1.30;;
2001;SDS011;1003;48.002;7.788;2022-09-09T04:19:14;3.10;;;1.10;;
2001;SDS011;1003;48.002;7.788;2022-09-09T04:21:41;1.57;;;1.17;;
2001;SDS011;1003;48.002;7.788;2022-09-09T04:24:09;1.40;;;1.23;;
2001;SDS011;1003;48.002;7.788;2022-09-09T04:26:38;1.77;;;1.10;;
2001;SDS011;1003;48.002;7.788;2022-09-09T04:29:05;3.00;;;1.33;;
2001;SDS011;1003;48.002;7.788;2022-09-09T04:31:33;1.40;;;1.30;;
2001;SDS011;1003;48.002;7.788;2022-09-09T04:34:00;2.03;;;1.37;;
2001;SDS011;1003;48.002;7.788;2022-09-09T04:36:30;2.17;;;1.10;;
2001;SDS011;1003;48.002;7.788;2022-09-09T04:38:58;2.63;;;1.10;;
2001;SDS011;1003;48.002;7.788;2022-09-09T04:41:26;3.00;;;1.30;;
2001;SDS011;1003;48.002;7.788;2022-09-09T04:43:55;1.07;;;1.03;;
2001;SDS011;1003;48.002;7.788;2022-09-09T04:46:22;1.20;;;1.10;;
2001;SDS011;1003;48.002;7.788;2022-09-09T04:48:50;2.07;;;1.47;;
2001;SDS011;1003;48.002;7.788;2022-09-09T04:51:18;0.90;;;0.90;;
2001;SDS011;1003;48.002;7.788;2022-09-09T04:53:45;1.53;;;1.10;;
2001;SDS011;1003;48.002;7.788;2022-09-09T04:56:14;1.93;;;1.27;;
2001;SDS011;1003;48.002;7.788;2022-09-09T04:58:43;4.03;;;1.10;;
2001;SDS011;1003;48.002;7.788;2022-09-09T05:01:12;1.50;;;1.20;;
2001;SDS011;1003;48.002;7.788;2022-09-09T05:03:42;1.57;;;1.40;;
2001;SDS011;1003;48.002;7.788;2022-09-09T05:06:10;1.40;;;1.30;;
2001;SDS011;1003;48.002;7.788;2022-09-09T05:08:41;1.97;;;1.07;;
2001;SDS011;1003;48.002;7.788;2022-09-09T05:11:13;2.33;;;1.10;;
2001;SDS011;1003;48.002;7.788;2022-09-09T05:13:43;2.10;;;1.00;;
2001;SDS011;1003;48.002;7.788;2022-09-09T05:16:13;3.30;;;1.10;;
2001;SDS011;1003;48.002;7.788;2022-09-09T05:18:41;1.60;;;1.20;;
2001;SDS011;1003;48.002;7.788;2022-09-09T05:21:09;2.73;;;1.23;;
2001;SDS011;1003;48.002;7.788;2022-09-09T05:23:37;1.60;;;1.17;;
2001;SDS011;1003;48.002;7.788;2022-09-09T05:26:05;1.93;;;1.00;;
2001;SDS011;1003;48.002;7.788;2022-09-09T05:28:35;1.63;;;1.10;;
2001;SDS011;1003;48.002;7.788;2022-09-09T05:31:03;2.70;;;1.30;;
2001;SDS011;1003;48.002;7.788;2022-09-09T05:33:34;1.67;;;1.00;;
2001;SDS011;1003;48.002;7.788;2022-09-09T05:36:03;2.20;;;1.00;;
2001;SDS011;1003;48.002;7.788;2022-09-09T05:38:33;3.70;;;1.27;;
2001;SDS011;1003;48.002;7.788;2022-09-09T05:41:01;1.43;;;1.10;;
2001;SDS011;1003;48.002;7.788;2022-09-09T05:43:29;2.03;;;1.17;;
2001;SDS011;1003;48.002;7.788;2022-09-09T05:46:01;1.70;;;1.03;;
2001;SDS011;1003;48.002;7.788;2022-09-09T05:48:30;2.37;;;1.20;;
2001;SDS011;1003;48.002;7.788;2022-09-09T05:51:00;2.83;;;1.40;;
2001;SDS011;1003;48.002;7.788;2022-09-09T05:53:29;1.87;;;1.30;;
2001;SDS011;1003;48.002;7.788;2022-09-09T05:55:59;2.50;;;1.30;;
2001;SDS011;1003;48.002;7.788;2022-09-09T05:58:29;3.43;;;1.17;;
2001;SDS011;1003;48.002;7.788;2022-09-09T06:01:00;2.23;;;1.23;;
2001;SDS011;1003;48.002;7.788;2022-09-09T06:03:29;2.93;;;1.07;;
2001;SDS011;1003;48.002;7.788;2022-09-09T06:05:57;2.87;;;1.30;;
2001;SDS011;1003;48.002;7.788;2022-09-09T06:08:26;2.73;;;1.17;;
2001;SDS011;1003;48.002;7.788;2022-09-09T06:11:00;1.00;;;1.00;;
2001;SDS011;1003;48.002;7.788;2022-09-09T06:13:29;3.57;;;1.70;;
2001;SDS011;1003;48.002;7.788;2022-09-09T06:15:56;2.10;;;1.00;;
2001;SDS011;1003;48.002;7.788;2022-09-09T06:18:24;2.00;;;1.13;;
2001;SDS011;1003;48.002;7.788;2022-09-09T06:20:55;2.57;;;1.13;;
2001;SDS011;1003;48.002;7.788;2022-09-09T06:23:27;2.73;;;1.17;;
2001;SDS011;1003;48.002;7.788;2022-09-09T06:26:01;2.53;;;1.40;;
2001;SDS011;1003;48.002;7.788;2022-09-09T06:28:31;2.27;;;1.07;;
2001;SDS011;1003;48.002;7.788;2022-09-09T06:30:58;2.03;;;1.20;;
2001;SDS011;1003;48.002;7.788;2022-09-09T06:33:26;2.40;;;1.23;;
2001;SDS011;1003;48.002;7.788;2022-09-09T06:35:57;2.40;;;0.97;;
2001;SDS011;1003;48.002;7.788;2022-09-09T06:38:24;2.97;;;1.10;;
2001;SDS011;1003;48.002;7.788;2022-09-09T06:40:53;3.20;;;1.20;;
2001;SDS011;1003;48.002;7.788;2022-09-09T06:43:20;2.50;;;1.00;;
2001;SDS011;1003;48.002;7.788;2022-09-09T06:45:55;4.53;;;1.30;;
2001;SDS011;1003;48.002;7.788;2022-09-09T06:48:23;2.53;;;1.10;;
2001;SDS011;1003;48.002;7.788;2022-09-09T06:50:59;2.73;;;1.13;;
2001;SDS011;1003;48.002;7.788;2022-09-09T06:53:29;5.07;;;1.43;;
2001;SDS011;1003;48.002;7.788;2022-09-09T06:55:58;2.27;;;1.33;;
2001;SDS011;1003;48.002;7.788;2022-09-09T06:58:27;3.70;;;1.20;;
2001;SDS011;1003;48.002;7.788;2022-09-09T07:01:01;2.73;;;1.03;;
2001;SDS011;1003;48.002;7.788;2022-09-09T07:03:29;2.63;;;1.10;;
2001;SDS011;1003;48.002;7.788;2022-09-09T07:05:57;2.30;;;1.00;;
2001;SDS011;1003;48.002;7.788;2022-09-09T07:08:24;3.03;;;1.10;;
2001;SDS011;1003;48.002;7.788;2022-09-09T07:10:53;3.20;;;0.80;;
2001;SDS011;1003;48.002;7.788;2022-09-09T07:13:23;1.57;;;0.87;;
2001;SDS011;1003;48.002;7.788;2022-09-09T07:15:51;3.20;;;1.30;;
2001;SDS011;1003;48.002;7.788;2022-09-09T07:18:19;2.47;;;1.23;;
2001;SDS011;1003;48.002;7.788;2022-09-09T07:20:52;2.80;;;1.27;;
2001;SDS011;1003;48.002;7.788;2022-09-09T07:23:21;1.80;;;1.00;;
2001;SDS011;1003;48.002;7.788;2022-09-09T07:25:48;2.83;;;0.97;;
2001;SDS011;1003;48.002;7.788;2022-09-09T07:28:19;3.30;;;1.07;;
2001;SDS011;1003;48.002;7.788;2022-09-09T07:30:52;2.10;;;1.10;;
2001;SDS011;1003;48.002;7.788;2022-09-09T07:33:21;1.93;;;0.83;;
2001;SDS011;1003;48.002;7.788;2022-09-09T07:35:48;1.53;;;0.90;;
2001;SDS011;1003;48.002;7.788;2022-09-09T07:38:16;4.13;;;1.10;;
2001;SDS011;1003;48.002;7.788;2022-09-09T07:40:43;3.63;;;1.03;;
2001;SDS011;1003;48.002;7.788;2022-09-09T07:43:10;3.50;;;1.10;;
2001;SDS011;1003;48.002;7.788;2022-09-09T07:45:39;3.33;;;1.10;;
2001;SDS011;1003;48.002;7.788;2022-09-09T07:48:07;2.20;;;1.00;;
2001;SDS011;1003;48.002;7.788;2022-09-09T07:50:35;2.27;;;0.80;;
2001;SDS011;1003;48.002;7.788;2022-09-09T07:53:04;2.03;;;0.80;;
2001;SDS011;1003;48.002;7.788;2022-09-09T07:55:31;3.70;;;0.93;;
2001;SDS011;1003;48.002;7.788;2022-09-09T07:57:58;2.13;;;0.80;;
2001;SDS011;1003;48.002;7.788;2022-09-09T08:00:25;4.07;;;1.20;;
2001;SDS011;1003;48.002;7.788;2022-09-09T08:02:54;1.33;;;1.00;;
2001;SDS011;1003;48.002;7.788;2022-09-09T08:05:21;2.00;;;0.80;;
2001;SDS011;1003;48.002;7.788;2022-09-09T08:07:48;2.07;;;1.13;;
2001;SDS011;1003;48.002;7.788;2022-09-09T08:10:15;3.67;;;1.60;;
2001;SDS011;1003;48.002;7.788;2022-09-09T08:12:45;4.93;;;1.20;;
2001;SDS011;1003;48.002;7.788;2022-09-09T08:15:14;4.03;;;1.37;;
2001;SDS011;1003;48.002;7.788;2022-09-09T08:17:41;3.53;;;1.40;;
2001;SDS011;1003;48.002;7.788;2022-09-09T08:20:10;2.70;;;1.30;;
2001;SDS011;1003;48.002;7.788;2022-09-09T08:22:37;3.70;;;1.50;;
2001;SDS011;1003;48.002;7.788;2022-09-09T08:25:05;3.23;;;1.30;;
2001;SDS011;1003;48.002;7.788;2022-09-09T08:27:33;2.30;;;1.50;;
2001;SDS011;1003;48.002;7.788;2022-09-09T08:30:00;3.00;;;1.30;;
2001;SDS011;1003;48.002;7.788;2022-09-09T08:32:27;3.20;;;1.20;;
2001;SDS011;1003;48.002;7.788;2022-09-09T08:34:54;5.90;;;1.30;;
2001;SDS011;1003;48.002;7.788;2022-09-09T08:37:23;2.60;;;0.90;;
2001;SDS011;1003;48.002;7.788;2022-09-09T08:39:50;1.90;;;1.10;;
2001;SDS011;1003;48.002;7.788;2022-09-09T08:45:15;1.30;;;0.77;;
2001;SDS011;1003;48.002;7.788;2022-09-09T08:48:00;2.00;;;1.20;;
2001;SDS011;1003;48.002;7.788;2022-09-09T08:50:47;2.50;;;1.00;;
2001;SDS011;1003;48.002;7.788;2022-09-09T08:53:19;2.50;;;1.10;;
2001;SDS011;1003;48.002;7.788;2022-09-09T08:55:55;3.50;;;1.13;;
2001;SDS011;1003;48.002;7.788;2022-09-09T08:58:26;3.80;;;1.30;;
2001;SDS011;1003;48.002;7.788;2022-09-09T09:01:11;1.47;;;1.03;;
2001;SDS011;1003;48.002;7.788;2022-09-09T09:03:56;3.07;;;1.17;;
2001;SDS011;1003;48.002;7.788;2022-09-09T09:06:41;2.70;;;0.90;;
2001;SDS011;1003;48.002;7.788;2022-09-09T09:09:19;2.60;;;1.30;;
2001;SDS011;1003;48.002;7.788;2022-09-09T09:11:57;3.40;;;1.00;;
2001;SDS011;1003;48.002;7.788;2022-09-09T09:14:27;3.00;;;1.23;;
2001;SDS011;1003;48.002;7.788;2022-09-09T09:16:59;4.40;;;1.27;;
2001;SDS011;1003;48.002;7.788;2022-09-09T09:19:32;3.97;;;1.00;;
2001;SDS011;1003;48.002;7.788;2022-09-09T09:22:02;3.70;;;0.70;;
2001;SDS011;1003;48.002;7.788;2022-09-09T09:24:40;2.50;;;1.10;;
2001;SDS011;1003;48.002;7.788;2022-09-09T09:27:18;2.27;;;0.93;;
2001;SDS011;1003;48.002;7.788;2022-09-09T09:29:56;2.97;;;1.13;;
2001;SDS011;1003;48.002;7.788;2022-09-09T09:32:25;2.70;;;0.90;;
2001;SDS011;1003;48.002;7.788;2022-09-09T09:34:59;5.50;;;1.00;;
2001;SDS011;1003;48.002;7.788;2022-09-09T09:37:30;3.90;;;1.10;;
2001;SDS011;1003;48.002;7.788;2022-09-09T09:40:09;3.10;;;0.77;;
2001;SDS011;1003;48.002;7.788;2022-09-09T09:42:37;3.07;;;1.00;;
2001;SDS011;1003;48.002;7.788;2022-09-09T09:45:15;2.70;;;0.73;;
2001;SDS011;1003;48.002;7.788;2022-09-09T09:47:57;4.17;;;1.00;;
2001;SDS011;1003;48.002;7.788;2022-09-09T09:50:27;4.30;;;1.10;;
2001;SDS011;1003;48.002;7.788;2022-09-09T09:52:55;1.90;;;0.67;;
2001;SDS011;1003;48.002;7.788;2022-09-09T09:55:26;1.23;;;0.80;;
2001;SDS011;1003;48.002;7.788;2022-09-09T09:58:00;3.60;;;1.00;;
2001;SDS011;1003;48.002;7.788;2022-09-09T10:00:29;1.83;;;0.90;;
2001;SDS011;1003;48.002;7.788;2022-09-09T10:02:57;2.63;;;1.00;;
2001;SDS011;1003;48.002;7.788;2022-09-09T10:05:27;3.63;;;1.00;;
2001;SDS011;1003;48.002;7.788;2022-09-09T10:08:03;4.10;;;1.00;;
2001;SDS011;1003;48.002;7.788;2022-09-09T10:10:40;2.33;;;1.00;;
2001;SDS011;1003;48.002;7.788;2022-09-09T10:13:23;1.20;;;0.70;;
2001;SDS011;1003;48.002;7.788;2022-09-09T10:16:07;2.43;;;0.70;;
2001;SDS011;1003;48.002;7.788;2022-09-09T10:19:02;2.10;;;0.70;;
2001;SDS011;1003;48.002;7.788;2022-09-09T10:21:50;1.67;;;0.70;;
2001;SDS011;1003;48.002;7.788;2022-09-09T10:27:46;2.37;;;0.90;;
2001;SDS011;1003;48.002;7.788;2022-09-09T10:30:43;2.67;;;0.80;;
2001;SDS011;1003;48.002;7.788;2022-09-09T10:33:25;1.70;;;0.70;;
2001;SDS011;1003;48.002;7.788;2022-09-09T10:36:06;1.97;;;0.97;;
2001;SDS011;1003;48.002;7.788;2022-09-09T10:38:40;5.67;;;1.00;;
2001;SDS011;1003;48.002;7.788;2022-09-09T10:41:23;3.17;;;0.90;;
2001;SDS011;1003;48.002;7.788;2022-09-09T10:44:12;3.50;;;0.90;;
2001;SDS011;1003;48.002;7.788;2022-09-09T10:47:05;2.10;;;1.00;;
2001;SDS011;1003;48.002;7.788;2022-09-09T10:50:23;2.30;;;0.70;;
2001;SDS011;1003;48.002;7.788;2022-09-09T10:53:14;2.20;;;0.80;;
2001;SDS011;1003;48.002;7.788;2022-09-09T10:55:56;3.07;;;1.03;;
2001;SDS011;1003;48.002;7.788;2022-09-09T10:58:31;3.50;;;0.80;;
2001;SDS011;1003;48.002;7.788;2022-09-09T11:01:09;3.37;;;0.87;;
2001;SDS011;1003;48.002;7.788;2022-09-09T11:03:43;2.30;;;0.80;;
2001;SDS011;1003;48.002;7.788;2022-09-09T11:06:20;2.23;;;0.87;;
2001;SDS011;1003;48.002;7.788;2022-09-09T11:08:58;2.23;;;0.90;;
2001;SDS011;1003;48.002;7.788;2022-09-09T11:11:32;3.80;;;0.80;;
2001;SDS011;1003;48.002;7.788;2022-09-09T11:14:09;2.63;;;0.83;;
2001;SDS011;1003;48.002;7.788;2022-09-09T11:16:47;2.50;;;0.70;;
2001;SDS011;1003;48.002;7.788;2022-09-09T11:19:21;2.10;;;0.80;;
2001;SDS011;1003;48.002;7.788;2022-09-09T11:21:57;3.70;;;1.00;;
2001;SDS011;1003;48.002;7.788;2022-09-09T11:24:29;2.83;;;1.00;;
2001;SDS011;1003;48.002;7.788;2022-09-09T11:27:06;1.50;;;0.70;;
2001;SDS011;1003;48.002;7.788;2022-09-09T11:32:51;5.23;;;0.80;;
2001;SDS011;1003;48.002;7.788;2022-09-09T11:36:01;1.33;;;0.73;;
2001;SDS011;1003;48.002;7.788;2022-09-09T11:38:50;2.87;;;1.20;;
2001;SDS011;1003;48.002;7.788;2022-09-09T11:41:19;2.73;;;0.80;;
2001;SDS011;1003;48.002;7.788;2022-09-09T11:43:48;2.93;;;0.80;;
2001;SDS011;1003;48.002;7.788;2022-09-09T11:46:18;2.20;;;0.70;;
2001;SDS011;1003;48.002;7.788;2022-09-09T11:48:59;1.80;;;0.77;;
2001;SDS011;1003;48.002;7.788;2022-09-09T11:51:30;5.13;;;0.93;;
2001;SDS011;1003;48.002;7.788;2022-09-09T11:54:01;1.23;;;0.80;;
2001;SDS011;1003;48.002;7.788;2022-09-09T11:56:49;3.47;;;0.93;;
2001;SDS011;1003;48.002;7.788;2022-09-09T11:59:19;1.93;;;0.73;;
2001;SDS011;1003;48.002;7.788;2022-09-09T12:01:49;1.33;;;0.60;;
2001;SDS011;1003;48.002;7.788;2022-09-09T12:04:33;2.23;;;0.87;;
2001;SDS011;1003;48.002;7.788;2022-09-09T12:07:05;1.57;;;0.73;;
2001;SDS011;1003;48.002;7.788;2022-09-09T12:09:54;1.33;;;0.63;;
2001;SDS011;1003;48.002;7.788;2022-09-09T12:12:30;1.70;;;0.73;;
2001;SDS011;1003;48.002;7.788;2022-09-09T12:15:16;2.57;;;0.60;;
2001;SDS011;1003;48.002;7.788;2022-09-09T12:17:50;2.07;;;0.70;;
2001;SDS011;1003;48.002;7.788;2022-09-09T12:20:21;0.97;;;0.60;;
2001;SDS011;1003;48.002;7.788;2022-09-09T12:26:21;2.60;;;0.70;;
2001;SDS011;1003;48.002;7.788;2022-09-09T12:29:02;3.27;;;1.10;;
2001;SDS011;1003;48.002;7.788;2022-09-09T12:31:46;2.87;;;0.90;;
2001;SDS011;1003;48.002;7.788;2022-09-09T12:34:27;1.27;;;0.60;;
2001;SDS011;1003;48.002;7.788;2022-09-09T12:39:58;2.83;;;0.73;;
2001;SDS011;1003;48.002;7.788;2022-09-09T12:42:28;1.63;;;0.60;;
2001;SDS011;1003;48.002;7.788;2022-09-09T12:44:58;4.60;;;0.87;;
2001;SDS011;1003;48.002;7.788;2022-09-09T12:47:36;2.07;;;0.70;;
2001;SDS011;1003;48.002;7.788;2022-09-09T12:50:15;3.90;;;0.80;;
2001;SDS011;1003;48.002;7.788;2022-09-09T12:52:47;2.10;;;0.80;;
2001;SDS011;1003;48.002;7.788;2022-09-09T12:55:19;2.03;;;0.40;;
2001;SDS011;1003;48.002;7.788;2022-09-09T12:57:50;2.93;;;0.70;;
2001;SDS011;1003;48.002;7.788;2022-09-09T13:00:19;1.70;;;0.60;;
2001;SDS011;1003;48.002;7.788;2022-09-09T13:02:50;2.00;;;0.70;;
2001;SDS011;1003;48.002;7.788;2022-09-09T13:05:21;2.27;;;0.83;;
2001;SDS011;1003;48.002;7.788;2022-09-09T13:07:52;1.00;;;0.60;;
2001;SDS011;1003;48.002;7.788;2022-09-09T13:10:28;1.87;;;0.70;;
2001;SDS011;1003;48.002;7.788;2022-09-09T13:13:01;2.20;;;0.77;;
2001;SDS011;1003;48.002;7.788;2022-09-09T13:15:28;2.30;;;0.70;;
2001;SDS011;1003;48.002;7.788;2022-09-09T13:17:57;2.07;;;0.70;;
2001;SDS011;1003;48.002;7.788;2022-09-09T13:20:29;2.77;;;0.83;;
2001;SDS011;1003;48.002;7.788;2022-09-09T13:22:57;4.80;;;0.70;;
2001;SDS011;1003;48.002;7.788;2022-09-09T13:25:25;2.03;;;0.80;;
2001;SDS011;1003;48.002;7.788;2022-09-09T13:27:55;2.63;;;0.50;;
2001;SDS011;1003;48.002;7.788;2022-09-09T13:30:27;1.00;;;0.40;;
2001;SDS011;1003;48.002;7.788;2022-09-09T13:33:05;1.47;;;0.40;;
2001;SDS011;1003;48.002;7.788;2022-09-09T13:35:48;0.73;;;0.50;;
2001;SDS011;1003;48.002;7.788;2022-09-09T13:38:21;1.33;;;0.43;;
2001;SDS011;1003;48.002;7.788;2022-09-09T13:40:56;2.03;;;0.90;;
2001;SDS011;1003;48.002;7.788;2022-09-09T13:43:27;3.50;;;0.50;;
2001;SDS011;1003;48.002;7.788;2022-09-09T13:45:58;1.50;;;0.50;;
2001;SDS011;1003;48.002;7.788;2022-09-09T13:48:27;0.80;;;0.40;;
2001;SDS011;1003;48.002;7.788;2022-09-09T13:50:57;1.80;;;0.40;;
2001;SDS011;1003;48.002;7.788;2022-09-09T13:53:29;0.73;;;0.30;;
2001;SDS011;1003;48.002;7.788;2022-09-09T13:55:56;0.60;;;0.23;;
2001;SDS011;1003;48.002;7.788;2022-09-09T13:58:24;0.60;;;0.40;;
2001;SDS011;1003;48.002;7.788;2022-09-09T14:00:52;0.40;;;0.40;;
2001;SDS011;1003;48.002;7.788;2022-09-09T14:03:20;1.10;;;0.50;;
2001;SDS011;1003;48.002;7.788;2022-09-09T14:05:47;1.53;;;0.63;;
2001;SDS011;1003;48.002;7.788;2022-09-09T14:08:18;1.23;;;0.33;;
2001;SDS011;1003;48.002;7.788;2022-09-09T14:10:51;1.00;;;0.37;;
2001;SDS011;1003;48.002;7.788;2022-09-09T14:13:20;2.73;;;0.70;;
2001;SDS011;1003;48.002;7.788;2022-09-09T14:15:48;1.87;;;0.60;;
2001;SDS011;1003;48.002;7.788;2022-09-09T14:18:15;2.57;;;0.60;;
2001;SDS011;1003;48.002;7.788;2022-09-09T14:20:43;2.30;;;0.53;;
2001;SDS011;1003;48.002;7.788;2022-09-09T14:23:11;2.17;;;0.60;;
2001;SDS011;1003;48.002;7.788;2022-09-09T14:25:41;4.30;;;0.77;;
2001;SDS011;1003;48.002;7.788;2022-09-09T14:28:12;1.40;;;0.50;;
2001;SDS011;1003;48.002;7.788;2022-09-09T14:30:40;1.67;;;0.70;;
2001;SDS011;1003;48.002;7.788;2022-09-09T14:33:09;2.07;;;0.63;;
2001;SDS011;1003;48.002;7.788;2022-09-09T14:35:39;1.63;;;0.60;;
2001;SDS011;1003;48.002;7.788;2022-09-09T14:38:06;2.20;;;0.73;;
2001;SDS011;1003;48.002;7.788;2022-09-09T14:40:35;2.70;;;0.90;;
2001;SDS011;1003;48.002;7.788;2022-09-09T14:43:04;4.47;;;0.70;;
2001;SDS011;1003;48.002;7.788;2022-09-09T14:45:33;3.40;;;0.70;;
2001;SDS011;1003;48.002;7.788;2022-09-09T14:48:03;1.73;;;0.90;;
2001;SDS011;1003;48.002;7.788;2022-09-09T14:50:30;2.70;;;0.70;;
2001;SDS011;1003;48.002;7.788;2022-09-09T14:52:57;2.37;;;0.83;;
2001;SDS011;1003;48.002;7.788;2022-09-09T14:55:24;1.80;;;0.73;;
2001;SDS011;1003;48.002;7.788;2022-09-09T14:57:53;2.90;;;0.90;;
2001;SDS011;1003;48.002;7.788;2022-09-09T15:00:20;3.10;;;0.70;;
2001;SDS011;1003;48.002;7.788;2022-09-09T15:02:53;2.20;;;0.60;;
2001;SDS011;1003;48.002;7.788;2022-09-09T15:05:20;2.20;;;0.57;;
2001;SDS011;1003;48.002;7.788;2022-09-09T15:07:49;0.93;;;0.33;;
2001;SDS011;1003;48.002;7.788;2022-09-09T15:10:16;1.33;;;0.60;;
2001;SDS011;1003;48.002;7.788;2022-09-09T15:12:43;1.50;;;0.57;;
2001;SDS011;1003;48.002;7.788;2022-09-09T15:15:11;1.80;;;0.40;;
2001;SDS011;1003;48.002;7.788;2022-09-09T15:17:38;1.97;;;0.50;;
2001;SDS011;1003;48.002;7.788;2022-09-09T15:20:07;1.50;;;0.63;;
2001;SDS011;1003;48.002;7.788;2022-09-09T15:22:35;1.03;;;0.37;;
2001;SDS011;1003;48.002;7.788;2022-09-09T15:25:03;0.90;;;0.40;;
2001;SDS011;1003;48.002;7.788;2022-09-09T15:27:32;1.73;;;0.70;;
2001;SDS011;1003;48.002;7.788;2022-09-09T15:29:59;1.23;;;0.63;;
2001;SDS011;1003;48.002;7.788;2022-09-09T15:32:27;1.63;;;0.60;;
2001;SDS011;1003;48.002;7.788;2022-09-09T15:34:55;2.77;;;0.60;;
2001;SDS011;1003;48.002;7.788;2022-09-09T15:37:23;1.07;;;0.30;;
2001;SDS011;1003;48.002;7.788;2022-09-09T15:39:50;2.07;;;0.70;;
2001;SDS011;1003;48.002;7.788;2022-09-09T15:42:17;1.87;;;0.40;;
2001;SDS011;1003;48.002;7.788;2022-09-09T15:44:44;0.73;;;0.43;;
2001;SDS011;1003;48.002;7.788;2022-09-09T15:47:11;1.17;;;0.60;;
2001;SDS011;1003;48.002;7.788;2022-09-09T15:49:40;4.63;;;1.70;;
2001;SDS011;1003;48.002;7.788;2022-09-09T15:52:08;3.87;;;1.50;;
2001;SDS011;1003;48.002;7.788;2022-09-09T15:54:38;2.80;;;1.10;;
2001;SDS011;1003;48.002;7.788;2022-09-09T15:57:06;0.77;;;0.63;;
2001;SDS011;1003;48.002;7.788;2022-09-09T15:59:38;1.07;;;0.60;;
2001;SDS011;1003;48.002;7.788;2022-09-09T16:02:05;2.37;;;0.80;;
2001;SDS011;1003;48.002;7.788;2022-09-09T16:04:32;1.23;;;0.63;;
2001;SDS011;1003;48.002;7.788;2022-09-09T16:07:01;1.73;;;0.73;;